createdAt,value
2022-08-21T00:02:17.460Z,19.09
2022-08-21T00:04:54.568Z,19.14
2022-08-21T00:07:27.330Z,19.34
2022-08-21T00:09:59.872Z,19.40
2022-08-21T00:12:28.831Z,19.40
2022-08-21T00:14:58.209Z,19.34
2022-08-21T00:17:28.511Z,19.24
2022-08-21T00:19:58.411Z,19.28
2022-08-21T00:22:29.436Z,19.32
2022-08-21T00:24:58.308Z,19.24
2022-08-21T00:27:27.054Z,18.95
2022-08-21T00:29:56.515Z,19.27
2022-08-21T00:32:28.575Z,19.28
2022-08-21T00:34:59.184Z,19.24
2022-08-21T00:37:28.649Z,18.98
2022-08-21T00:39:59.215Z,19.17
2022-08-21T00:42:32.881Z,19.19
2022-08-21T00:45:02.422Z,19.18
2022-08-21T00:47:34.104Z,18.99
2022-08-21T00:50:03.886Z,19.20
2022-08-21T00:52:37.049Z,19.21
2022-08-21T00:55:09.988Z,19.15
2022-08-21T00:57:46.015Z,19.15
2022-08-21T01:00:23.854Z,19.17
2022-08-21T01:03:00.721Z,19.24
2022-08-21T01:05:30.115Z,19.18
2022-08-21T01:08:00.387Z,19.23
2022-08-21T01:10:30.367Z,19.11
2022-08-21T01:13:00.615Z,19.06
2022-08-21T01:15:41.277Z,19.11
2022-08-21T01:18:15.949Z,19.09
2022-08-21T01:20:59.428Z,19.07
2022-08-21T01:23:28.680Z,18.84
2022-08-21T01:25:57.494Z,18.99
2022-08-21T01:28:26.732Z,18.91
2022-08-21T01:30:57.191Z,18.98
2022-08-21T01:33:27.464Z,18.93
2022-08-21T01:35:56.681Z,18.96
2022-08-21T01:38:27.671Z,18.87
2022-08-21T01:40:58.683Z,18.87
2022-08-21T01:43:30.709Z,18.79
2022-08-21T01:46:08.625Z,18.70
2022-08-21T01:48:38.612Z,18.84
2022-08-21T01:51:08.445Z,18.80
2022-08-21T01:53:40.340Z,18.83
2022-08-21T01:56:13.906Z,18.92
2022-08-21T01:58:44.225Z,18.77
2022-08-21T02:01:14.929Z,18.78
2022-08-21T02:03:44.597Z,18.87
2022-08-21T02:06:19.232Z,18.91
2022-08-21T02:08:51.473Z,18.88
2022-08-21T02:11:21.615Z,18.75
2022-08-21T02:13:50.332Z,18.78
2022-08-21T02:16:19.663Z,18.78
2022-08-21T02:18:49.242Z,18.70
2022-08-21T02:21:17.886Z,18.74
2022-08-21T02:23:48.536Z,18.66
2022-08-21T02:26:17.956Z,18.69
2022-08-21T02:28:47.436Z,18.69
2022-08-21T02:31:17.688Z,18.66
2022-08-21T02:33:46.912Z,18.64
2022-08-21T02:36:16.393Z,18.59
2022-08-21T02:38:46.026Z,18.59
2022-08-21T02:41:20.454Z,18.61
2022-08-21T02:43:49.797Z,18.67
2022-08-21T02:46:22.378Z,18.63
2022-08-21T02:48:51.234Z,18.55
2022-08-21T02:51:23.998Z,18.57
2022-08-21T02:53:52.725Z,18.49
2022-08-21T02:56:24.155Z,18.46
2022-08-21T02:58:57.708Z,18.49
2022-08-21T03:01:30.263Z,18.48
2022-08-21T03:03:59.138Z,18.24
2022-08-21T03:06:28.230Z,18.28
2022-08-21T03:08:57.729Z,18.10
2022-08-21T03:11:29.734Z,18.34
2022-08-21T03:13:59.357Z,18.40
2022-08-21T03:16:34.377Z,18.38
2022-08-21T03:19:05.832Z,18.43
2022-08-21T03:21:35.961Z,18.41
2022-08-21T03:24:08.052Z,18.40
2022-08-21T03:26:38.450Z,18.39
2022-08-21T03:29:10.949Z,18.38
2022-08-21T03:31:40.683Z,18.39
2022-08-21T03:34:09.758Z,18.31
2022-08-21T03:36:38.238Z,18.31
2022-08-21T03:39:08.429Z,18.31
2022-08-21T03:41:41.778Z,18.27
2022-08-21T03:44:10.905Z,18.30
2022-08-21T03:46:40.080Z,18.27
2022-08-21T03:49:10.332Z,18.18
2022-08-21T03:51:38.795Z,18.21
2022-08-21T03:54:07.953Z,18.20
2022-08-21T03:56:38.533Z,18.15
2022-08-21T03:59:07.557Z,17.89
2022-08-21T04:01:37.454Z,18.10
2022-08-21T04:04:07.492Z,18.14
2022-08-21T04:06:38.021Z,18.11
2022-08-21T04:09:07.656Z,18.14
2022-08-21T04:11:40.199Z,18.11
2022-08-21T04:14:08.912Z,18.05
2022-08-21T04:16:40.342Z,17.97
2022-08-21T04:19:10.119Z,17.91
2022-08-21T04:21:40.675Z,17.82
2022-08-21T04:24:11.661Z,17.72
2022-08-21T04:26:43.385Z,17.92
2022-08-21T04:29:14.714Z,17.94
2022-08-21T04:31:44.795Z,17.85
2022-08-21T04:34:15.975Z,17.95
2022-08-21T04:36:45.172Z,17.89
2022-08-21T04:39:14.102Z,18.04
2022-08-21T04:41:46.067Z,17.97
2022-08-21T04:44:15.937Z,18.03
2022-08-21T04:46:45.252Z,17.72
2022-08-21T04:49:13.825Z,17.70
2022-08-21T04:51:43.290Z,17.84
2022-08-21T04:54:17.386Z,17.99
2022-08-21T04:56:54.840Z,17.95
2022-08-21T04:59:27.250Z,18.10
2022-08-21T05:01:57.711Z,18.16
2022-08-21T05:04:34.874Z,18.18
2022-08-21T05:07:11.930Z,18.25
2022-08-21T05:09:41.837Z,18.08
2022-08-21T05:12:13.379Z,18.14
2022-08-21T05:14:43.406Z,18.24
2022-08-21T05:17:14.211Z,18.39
2022-08-21T05:19:43.650Z,18.27
2022-08-21T05:22:12.511Z,18.26
2022-08-21T05:24:42.487Z,18.38
2022-08-21T05:27:14.720Z,18.14
2022-08-21T05:29:47.706Z,18.30
2022-08-21T05:32:17.160Z,18.28
2022-08-21T05:34:45.854Z,18.61
2022-08-21T05:37:16.512Z,18.34
2022-08-21T05:40:20.702Z,18.50
2022-08-21T05:42:36.512Z,18.84
2022-08-21T05:45:06.327Z,18.96
2022-08-21T05:47:35.248Z,19.06
2022-08-21T05:50:06.540Z,19.23
2022-08-21T05:52:35.544Z,19.29
2022-08-21T05:55:05.700Z,19.11
2022-08-21T05:57:36.786Z,19.12
2022-08-21T06:00:14.414Z,19.38
2022-08-21T06:02:43.958Z,18.99
2022-08-21T06:05:13.433Z,19.54
2022-08-21T06:07:46.280Z,19.87
2022-08-21T06:10:16.200Z,19.91
2022-08-21T06:12:47.427Z,20.07
2022-08-21T06:15:16.218Z,20.04
2022-08-21T06:17:46.737Z,20.17
2022-08-21T06:20:16.044Z,20.30
2022-08-21T06:22:44.898Z,20.22
2022-08-21T06:25:14.146Z,20.58
2022-08-21T06:27:44.067Z,20.69
2022-08-21T06:30:16.172Z,20.57
2022-08-21T06:32:44.893Z,20.85
2022-08-21T06:35:14.828Z,20.66
2022-08-21T06:37:44.012Z,20.62
2022-08-21T06:40:14.341Z,20.98
2022-08-21T06:42:43.071Z,21.17
2022-08-21T06:45:14.575Z,21.42
2022-08-21T06:47:43.574Z,21.44
2022-08-21T06:50:12.482Z,21.61
2022-08-21T06:52:43.974Z,21.60
2022-08-21T06:55:22.217Z,21.93
2022-08-21T06:57:54.383Z,21.72
2022-08-21T07:00:25.364Z,21.93
2022-08-21T07:03:06.792Z,21.95
2022-08-21T07:05:35.701Z,21.77
2022-08-21T07:08:05.097Z,21.81
2022-08-21T07:10:33.972Z,22.33
2022-08-21T07:13:03.170Z,22.57
2022-08-21T07:15:34.201Z,22.37
2022-08-21T07:18:03.409Z,21.95
2022-08-21T07:20:33.628Z,22.19
2022-08-21T07:23:07.858Z,22.83
2022-08-21T07:25:37.280Z,22.76
2022-08-21T07:28:06.882Z,23.00
2022-08-21T07:30:38.306Z,22.97
2022-08-21T07:33:06.984Z,23.02
2022-08-21T07:35:38.001Z,23.10
2022-08-21T07:38:07.221Z,23.09
2022-08-21T07:40:35.726Z,23.41
2022-08-21T07:43:05.126Z,23.60
2022-08-21T07:45:34.724Z,23.92
2022-08-21T07:48:06.062Z,23.59
2022-08-21T07:50:35.983Z,23.92
2022-08-21T07:53:06.459Z,23.98
2022-08-21T07:55:35.315Z,23.89
2022-08-21T07:58:04.348Z,24.07
2022-08-21T08:00:33.866Z,24.01
2022-08-21T08:03:04.684Z,23.88
2022-08-21T08:05:38.322Z,24.34
2022-08-21T08:08:07.986Z,24.57
2022-08-21T08:10:37.222Z,24.34
2022-08-21T08:13:10.431Z,24.57
2022-08-21T08:15:47.665Z,24.88
2022-08-21T08:18:19.201Z,24.58
2022-08-21T08:20:50.346Z,24.60
2022-08-21T08:23:19.415Z,25.16
2022-08-21T08:25:48.074Z,24.98
2022-08-21T08:34:12.922Z,25.13
2022-08-21T08:36:52.998Z,25.29
2022-08-21T08:39:26.414Z,25.11
2022-08-21T08:42:32.730Z,25.47
2022-08-21T08:45:05.237Z,25.47
2022-08-21T08:47:43.040Z,25.49
2022-08-21T08:50:19.869Z,25.44
2022-08-21T08:52:54.454Z,26.13
2022-08-21T08:55:31.182Z,25.61
2022-08-21T08:58:03.616Z,26.00
2022-08-21T09:00:35.121Z,26.39
2022-08-21T09:03:06.562Z,26.22
2022-08-21T09:05:51.044Z,26.03
2022-08-21T09:08:50.844Z,26.67
2022-08-21T09:11:31.393Z,26.67
2022-08-21T09:14:16.651Z,26.53
2022-08-21T09:17:02.588Z,26.38
2022-08-21T09:19:58.017Z,26.83
2022-08-21T09:22:51.452Z,26.53
2022-08-21T09:25:25.013Z,26.52
2022-08-21T09:27:58.193Z,27.09
2022-08-21T09:30:33.219Z,27.41
2022-08-21T09:33:02.336Z,27.91
2022-08-21T09:35:33.029Z,28.01
2022-08-21T09:38:14.237Z,27.67
2022-08-21T09:40:47.560Z,27.95
2022-08-21T09:43:22.971Z,28.04
2022-08-21T09:46:11.284Z,27.93
2022-08-21T09:48:48.633Z,27.72
2022-08-21T09:51:24.227Z,27.73
2022-08-21T09:54:15.161Z,27.71
2022-08-21T09:57:18.259Z,27.83
2022-08-21T09:59:54.881Z,27.46
2022-08-21T10:02:32.287Z,27.76
2022-08-21T10:07:47.811Z,27.93
2022-08-21T10:10:27.747Z,27.73
2022-08-21T10:13:24.968Z,27.93
2022-08-21T10:16:32.163Z,27.90
2022-08-21T10:19:18.959Z,27.56
2022-08-21T10:22:02.885Z,27.27
2022-08-21T10:24:40.953Z,28.13
2022-08-21T10:27:23.695Z,28.06
2022-08-21T10:30:08.229Z,27.71
2022-08-21T10:33:03.702Z,28.05
2022-08-21T10:35:51.303Z,28.52
2022-08-21T10:39:25.985Z,28.65
2022-08-21T10:45:37.362Z,28.98
2022-08-21T10:48:09.756Z,28.80
2022-08-21T10:50:47.191Z,29.14
2022-08-21T10:53:43.540Z,28.43
2022-08-21T10:56:19.929Z,27.88
2022-08-21T10:59:04.210Z,28.92
2022-08-21T11:01:50.602Z,29.26
2022-08-21T11:04:26.292Z,29.55
2022-08-21T11:07:17.286Z,29.18
2022-08-21T11:09:50.129Z,29.86
2022-08-21T11:12:28.130Z,29.77
2022-08-21T11:15:02.726Z,30.08
2022-08-21T11:17:40.593Z,29.65
2022-08-21T11:20:17.418Z,30.38
2022-08-21T11:23:01.511Z,30.65
2022-08-21T11:25:37.658Z,30.26
2022-08-21T11:28:15.119Z,30.73
2022-08-21T11:30:58.260Z,30.97
2022-08-21T11:33:46.259Z,30.16
2022-08-21T11:36:34.240Z,29.92
2022-08-21T11:39:15.526Z,29.77
2022-08-21T11:41:55.168Z,30.37
2022-08-21T11:44:44.613Z,30.24
2022-08-21T11:47:21.702Z,30.96
2022-08-21T11:50:32.524Z,30.80
2022-08-21T11:53:11.317Z,30.94
2022-08-21T11:55:46.768Z,30.97
2022-08-21T11:58:22.946Z,30.53
2022-08-21T12:00:56.057Z,30.66
2022-08-21T12:03:30.030Z,31.07
2022-08-21T12:06:02.819Z,31.23
2022-08-21T12:08:34.968Z,31.46
2022-08-21T12:11:08.422Z,31.12
2022-08-21T12:13:42.152Z,31.02
2022-08-21T12:16:14.852Z,30.72
2022-08-21T12:18:44.486Z,30.94
2022-08-21T12:21:28.805Z,31.39
2022-08-21T12:24:17.990Z,31.53
2022-08-21T12:26:53.127Z,31.15
2022-08-21T12:29:27.038Z,30.52
2022-08-21T12:32:06.261Z,31.53
2022-08-21T12:34:39.668Z,31.33
2022-08-21T12:37:20.871Z,31.58
2022-08-21T12:39:54.235Z,31.75
2022-08-21T12:42:29.468Z,31.20
2022-08-21T12:45:02.147Z,31.19
2022-08-21T12:47:38.447Z,30.99
2022-08-21T12:50:13.148Z,31.14
2022-08-21T12:52:56.216Z,30.90
2022-08-21T12:55:30.318Z,30.41
2022-08-21T12:57:59.034Z,31.00
2022-08-21T13:00:31.439Z,31.54
2022-08-21T13:03:00.634Z,31.81
2022-08-21T13:05:38.940Z,32.11
2022-08-21T13:08:12.705Z,32.19
2022-08-21T13:10:43.077Z,32.16
2022-08-21T13:13:25.831Z,32.65
2022-08-21T13:16:00.322Z,32.94
2022-08-21T13:18:34.943Z,32.35
2022-08-21T13:21:10.212Z,32.62
2022-08-21T13:23:40.280Z,32.45
2022-08-21T13:26:18.601Z,31.75
2022-08-21T13:28:48.478Z,31.92
2022-08-21T13:31:24.038Z,31.86
2022-08-21T13:33:52.633Z,30.91
2022-08-21T13:36:27.143Z,31.19
2022-08-21T13:38:57.306Z,30.07
2022-08-21T13:41:31.109Z,30.79
2022-08-21T13:44:03.876Z,30.90
2022-08-21T13:46:36.348Z,30.83
2022-08-21T13:49:07.865Z,30.70
2022-08-21T13:51:37.045Z,31.07
2022-08-21T13:54:24.250Z,30.41
2022-08-21T13:56:52.625Z,30.94
2022-08-21T13:59:30.910Z,31.56
2022-08-21T14:02:02.181Z,31.91
2022-08-21T14:04:37.795Z,32.08
2022-08-21T14:07:19.677Z,31.20
2022-08-21T14:09:49.739Z,31.48
2022-08-21T14:12:25.677Z,31.20
2022-08-21T14:14:55.194Z,30.41
2022-08-21T14:17:33.550Z,30.69
2022-08-21T14:20:02.783Z,30.72
2022-08-21T14:22:40.131Z,30.80
2022-08-21T14:25:14.669Z,30.90
2022-08-21T14:27:52.318Z,30.52
2022-08-21T14:30:28.809Z,30.44
2022-08-21T14:32:58.111Z,30.89
2022-08-21T14:35:26.668Z,30.81
2022-08-21T14:37:55.398Z,30.41
2022-08-21T14:40:27.515Z,30.75
2022-08-21T14:42:56.165Z,30.94
2022-08-21T14:45:30.170Z,31.30
2022-08-21T14:47:59.698Z,30.84
2022-08-21T14:50:28.455Z,30.93
2022-08-21T14:52:56.640Z,30.50
2022-08-21T14:55:26.198Z,30.07
2022-08-21T14:57:56.917Z,30.44
2022-08-21T15:00:36.007Z,30.23
2022-08-21T15:03:07.217Z,30.50
2022-08-21T15:05:35.422Z,30.28
2022-08-21T15:08:03.974Z,29.77
2022-08-21T15:10:41.337Z,29.85
2022-08-21T15:13:21.297Z,28.89
2022-08-21T15:15:53.616Z,29.32
2022-08-21T15:18:22.460Z,29.52
2022-08-21T15:20:51.224Z,29.13
2022-08-21T15:23:20.310Z,28.94
2022-08-21T15:25:51.652Z,29.49
2022-08-21T15:28:21.435Z,29.68
2022-08-21T15:30:52.726Z,29.37
2022-08-21T15:33:22.384Z,28.63
2022-08-21T15:35:50.664Z,28.39
2022-08-21T15:38:18.992Z,28.96
2022-08-21T15:40:52.320Z,28.81
2022-08-21T15:43:30.643Z,28.84
2022-08-21T15:46:01.158Z,28.99
2022-08-21T15:48:30.257Z,28.49
2022-08-21T15:50:58.441Z,28.38
2022-08-21T15:53:26.574Z,28.54
2022-08-21T15:55:56.070Z,28.40
2022-08-21T15:58:25.755Z,28.31
2022-08-21T16:00:53.936Z,28.58
2022-08-21T16:03:22.884Z,28.70
2022-08-21T16:05:53.344Z,27.93
2022-08-21T16:08:22.497Z,28.24
2022-08-21T16:10:51.476Z,28.24
2022-08-21T16:13:27.779Z,29.12
2022-08-21T16:15:56.544Z,28.73
2022-08-21T16:18:26.544Z,28.24
2022-08-21T16:20:55.019Z,28.78
2022-08-21T16:23:23.328Z,28.85
2022-08-21T16:25:52.304Z,28.78
2022-08-21T16:28:22.566Z,28.94
2022-08-21T16:30:53.280Z,29.18
2022-08-21T16:33:28.629Z,28.88
2022-08-21T16:35:56.854Z,29.71
2022-08-21T16:38:25.241Z,29.43
2022-08-21T16:40:53.846Z,29.29
2022-08-21T16:43:24.931Z,29.17
2022-08-21T16:45:55.097Z,29.69
2022-08-21T16:48:24.206Z,29.90
2022-08-21T16:50:52.626Z,29.62
2022-08-21T16:53:20.795Z,29.54
2022-08-21T16:55:49.172Z,29.69
2022-08-21T16:58:24.761Z,29.59
2022-08-21T17:00:55.486Z,29.40
2022-08-21T17:03:33.870Z,29.28
2022-08-21T17:06:02.338Z,29.22
2022-08-21T17:08:30.510Z,28.56
2022-08-21T17:10:59.334Z,28.57
2022-08-21T17:13:28.568Z,28.67
2022-08-21T17:15:58.802Z,28.37
2022-08-21T17:18:27.848Z,28.01
2022-08-21T17:20:56.711Z,28.13
2022-08-21T17:23:25.140Z,28.09
2022-08-21T17:25:55.056Z,28.06
2022-08-21T17:28:28.900Z,27.59
2022-08-21T17:31:02.321Z,27.41
2022-08-21T17:33:45.540Z,27.26
2022-08-21T17:36:13.797Z,27.43
2022-08-21T17:38:44.212Z,27.26
2022-08-21T17:41:13.122Z,27.16
2022-08-21T17:43:42.715Z,27.15
2022-08-21T17:46:16.242Z,26.89
2022-08-21T17:48:47.257Z,26.60
2022-08-21T17:51:16.944Z,26.58
2022-08-21T17:53:46.092Z,26.52
2022-08-21T17:56:16.295Z,26.72
2022-08-21T17:58:48.391Z,26.38
2022-08-21T18:01:19.153Z,26.40
2022-08-21T18:03:48.037Z,26.17
2022-08-21T18:06:18.279Z,26.18
2022-08-21T18:08:46.993Z,26.04
2022-08-21T18:11:23.792Z,25.88
2022-08-21T18:13:55.184Z,25.94
2022-08-21T18:16:25.028Z,25.86
2022-08-21T18:18:53.514Z,25.64
2022-08-21T18:21:21.877Z,25.63
2022-08-21T18:23:50.625Z,25.46
2022-08-21T18:26:28.851Z,25.52
2022-08-21T18:29:00.442Z,25.21
2022-08-21T18:31:33.794Z,25.30
2022-08-21T18:34:07.081Z,25.27
2022-08-21T18:36:35.505Z,24.95
2022-08-21T18:39:32.709Z,25.03
2022-08-21T18:41:53.056Z,24.99
2022-08-21T18:44:24.711Z,24.85
2022-08-21T18:46:59.222Z,24.74
2022-08-21T18:49:28.213Z,24.66
2022-08-21T18:51:57.466Z,24.62
2022-08-21T18:54:26.468Z,24.58
2022-08-21T18:56:55.317Z,24.46
2022-08-21T18:59:26.772Z,24.30
2022-08-21T19:01:56.796Z,24.30
2022-08-21T19:04:43.596Z,24.23
2022-08-21T19:07:13.612Z,24.11
2022-08-21T19:09:52.740Z,24.10
2022-08-21T19:12:31.072Z,24.03
2022-08-21T19:15:00.638Z,23.93
2022-08-21T19:17:30.883Z,23.97
2022-08-21T19:20:05.880Z,23.95
2022-08-21T19:22:34.464Z,24.01
2022-08-21T19:25:02.985Z,23.94
2022-08-21T19:27:31.488Z,23.85
2022-08-21T19:30:00.349Z,23.66
2022-08-21T19:32:31.573Z,23.65
2022-08-21T19:35:00.283Z,23.51
2022-08-21T19:37:29.112Z,23.53
2022-08-21T19:39:59.078Z,23.44
2022-08-21T19:42:30.877Z,23.47
2022-08-21T19:44:59.601Z,23.43
2022-08-21T19:47:31.328Z,23.28
2022-08-21T19:50:03.851Z,23.42
2022-08-21T19:52:51.480Z,23.25
2022-08-21T19:55:20.288Z,23.25
2022-08-21T19:57:54.717Z,23.20
2022-08-21T20:00:24.195Z,23.15
2022-08-21T20:02:54.268Z,23.09
2022-08-21T20:05:22.952Z,22.96
2022-08-21T20:07:51.375Z,22.98
2022-08-21T20:10:19.893Z,22.89
2022-08-21T20:12:51.494Z,22.86
2022-08-21T20:15:23.025Z,22.83
2022-08-21T20:17:53.615Z,22.86
2022-08-21T20:20:21.905Z,22.79
2022-08-21T20:22:50.364Z,22.97
2022-08-21T20:25:21.271Z,22.90
2022-08-21T20:27:49.789Z,22.92
2022-08-21T20:30:22.719Z,22.85
2022-08-21T20:32:51.674Z,22.85
2022-08-21T20:35:23.033Z,22.93
2022-08-21T20:40:40.585Z,22.68
2022-08-21T20:43:12.829Z,22.67
2022-08-21T20:45:42.155Z,22.69
2022-08-21T20:48:15.361Z,22.56
2022-08-21T20:50:49.749Z,22.64
2022-08-21T20:53:32.164Z,22.55
2022-08-21T20:56:18.767Z,22.61
2022-08-21T20:58:57.906Z,22.48
2022-08-21T21:01:26.876Z,22.32
2022-08-21T21:04:03.141Z,22.33
2022-08-21T21:06:34.660Z,22.40
2022-08-21T21:09:11.163Z,22.40
2022-08-21T21:11:56.052Z,22.20
2022-08-21T21:14:39.175Z,22.23
2022-08-21T21:17:14.567Z,22.20
2022-08-21T21:19:49.008Z,22.29
2022-08-21T21:22:23.100Z,22.36
2022-08-21T21:25:00.864Z,22.31
2022-08-21T21:27:37.498Z,22.25
2022-08-21T21:30:12.382Z,22.24
2022-08-21T21:32:42.881Z,22.31
2022-08-21T21:35:17.074Z,22.26
2022-08-21T21:38:12.567Z,22.21
2022-08-21T21:40:58.219Z,22.26
2022-08-21T21:44:23.384Z,22.21
2022-08-21T21:47:02.728Z,22.20
2022-08-21T21:49:51.291Z,22.22
2022-08-21T21:52:41.922Z,22.24
2022-08-21T21:55:33.109Z,22.19
2022-08-21T21:58:33.371Z,22.18
2022-08-21T22:01:12.649Z,22.11
2022-08-21T22:03:48.303Z,22.12
2022-08-21T22:06:20.806Z,22.17
2022-08-21T22:09:05.175Z,21.92
2022-08-21T22:11:55.743Z,21.87
2022-08-21T22:14:32.106Z,21.95
2022-08-21T22:17:28.237Z,22.00
2022-08-21T22:19:58.432Z,22.07
2022-08-21T22:22:30.437Z,21.99
2022-08-21T22:25:06.445Z,22.02
2022-08-21T22:27:40.870Z,21.96
2022-08-21T22:30:17.522Z,21.93
2022-08-21T22:32:50.384Z,21.91
2022-08-21T22:35:26.567Z,21.92
2022-08-21T22:37:58.675Z,21.87
2022-08-21T22:40:30.466Z,21.88
2022-08-21T22:43:03.626Z,21.84
2022-08-21T22:45:58.751Z,21.85
2022-08-21T22:48:29.862Z,21.81
2022-08-21T22:51:06.848Z,21.89
2022-08-21T22:53:40.768Z,21.84
2022-08-21T22:56:11.515Z,21.77
2022-08-21T22:58:56.455Z,21.64
2022-08-21T23:01:40.822Z,21.76
2022-08-21T23:04:22.510Z,21.53
2022-08-21T23:06:55.311Z,21.69
2022-08-21T23:09:35.876Z,21.61
2022-08-21T23:12:21.103Z,21.60
2022-08-21T23:14:54.679Z,21.60
2022-08-21T23:17:39.389Z,21.56
2022-08-21T23:20:18.104Z,21.44
2022-08-21T23:23:08.913Z,21.34
2022-08-21T23:26:22.771Z,21.44
2022-08-21T23:29:24.911Z,21.30
2022-08-21T23:32:05.156Z,21.31
2022-08-21T23:34:46.074Z,21.24
2022-08-21T23:37:51.334Z,21.11
2022-08-21T23:40:50.939Z,21.09
2022-08-21T23:43:44.806Z,21.05
2022-08-21T23:46:46.159Z,21.04
2022-08-21T23:49:30.603Z,20.98
2022-08-21T23:52:15.824Z,21.02
2022-08-21T23:55:04.553Z,20.94
2022-08-21T23:57:50.971Z,20.93
